Time;durP1;ratioP1;P1;durP2;ratioP2;P2;SDS_P1;SDS_P2;PMS_P1;PMS_P2;Temp;Humidity;BMP_temperature;BMP_pressure;BME280_temperature;BME280_humidity;BME280_pressure;Samples;Min_cycle;Max_cycle;Signal;HPM_P1;HPM_P2
2023/12/25 00:03:19;;;;;;;3.40;1.60;;;;;;;7.04;100.00;96783.10;435252;1256;97917;-41
2023/12/25 00:13:27;;;;;;;2.90;1.70;;;;;;;7.08;100.00;96785.97;435195;1254;108890;-45
2023/12/25 00:23:34;;;;;;;2.30;1.70;;;;;;;7.10;100.00;96788.35;435319;1256;97874;-40
2023/12/25 00:33:42;;;;;;;3.50;2.20;;;;;;;7.15;100.00;96789.88;435200;1256;109648;-39
2023/12/25 00:43:49;;;;;;;3.60;3.10;;;;;;;7.17;100.00;96792.46;435255;1256;106941;-40
2023/12/25 00:53:56;;;;;;;6.20;2.90;;;;;;;7.21;100.00;96791.95;435068;1256;318790;-40
2023/12/25 01:04:02;;;;;;;3.10;2.30;;;;;;;7.23;100.00;96801.17;435384;1256;107836;-40
2023/12/25 01:14:10;;;;;;;5.90;4.20;;;;;;;7.27;100.00;96797.94;435126;1255;97913;-41
2023/12/25 01:24:16;;;;;;;6.40;3.40;;;;;;;7.22;100.00;96799.02;435431;1256;109595;-41
2023/12/25 01:34:22;;;;;;;3.70;2.40;;;;;;;7.20;100.00;96796.27;435232;1256;109280;-40
2023/12/25 01:54:37;;;;;;;4.20;2.40;;;;;;;7.24;100.00;96808.91;435349;1250;108503;-40
2023/12/25 02:04:44;;;;;;;3.30;1.80;;;;;;;7.29;100.00;96800.63;435233;1250;97874;-40
2023/12/25 02:14:51;;;;;;;4.40;2.20;;;;;;;7.35;100.00;96799.05;435327;1255;110134;-40
2023/12/25 02:25:01;;;;;;;2.60;1.60;;;;;;;7.44;100.00;96792.21;435270;1256;108295;-40
2023/12/25 02:35:09;;;;;;;2.30;1.50;;;;;;;7.50;100.00;96799.60;436025;1253;97896;-40
2023/12/25 02:45:16;;;;;;;3.10;2.00;;;;;;;7.54;100.00;96802.94;434941;1258;109438;-40
2023/12/25 02:55:22;;;;;;;4.40;1.00;;;;;;;7.60;100.00;96803.05;434875;1258;97874;-41
2023/12/25 03:05:29;;;;;;;0.50;0.50;;;;;;;7.80;100.00;96802.40;434999;1259;110456;-39
2023/12/25 03:15:35;;;;;;;0.40;0.40;;;;;;;8.24;100.00;96819.69;434900;1256;107636;-40
2023/12/25 03:25:42;;;;;;;0.30;0.30;;;;;;;8.55;100.00;96833.13;435035;1259;97477;-40
2023/12/25 03:35:49;;;;;;;0.90;0.30;;;;;;;8.74;100.00;96847.65;434880;1258;107440;-41
2023/12/25 03:45:57;;;;;;;0.70;0.70;;;;;;;8.85;100.00;96865.70;434915;1257;97878;-40
2023/12/25 04:06:07;;;;;;;2.00;0.80;;;;;;;8.85;100.00;96955.00;434883;1266;107732;-43
2023/12/25 04:26:27;;;;;;;0.60;0.30;;;;;;;8.43;100.00;96979.38;434923;1266;107189;-40
2023/12/25 04:36:33;;;;;;;0.50;0.50;;;;;;;8.30;100.00;96990.88;434828;1256;97987;-41
2023/12/25 04:46:41;;;;;;;0.80;0.60;;;;;;;8.30;100.00;97001.36;435010;1258;110505;-39
2023/12/25 05:06:54;;;;;;;0.90;0.90;;;;;;;8.28;100.00;96986.75;435042;1255;97874;-39
2023/12/25 05:17:02;;;;;;;1.00;0.70;;;;;;;8.26;100.00;96983.30;435062;1253;108324;-42
2023/12/25 05:27:11;;;;;;;0.70;0.70;;;;;;;8.23;100.00;96990.02;435034;1257;97520;-41
2023/12/25 05:37:18;;;;;;;0.70;0.70;;;;;;;8.28;100.00;96992.90;435118;1265;110511;-40
2023/12/25 05:47:25;;;;;;;0.70;0.70;;;;;;;8.35;100.00;96998.39;435151;1255;108229;-42
2023/12/25 05:57:32;;;;;;;1.80;0.60;;;;;;;8.42;100.00;96986.64;435294;1251;96663;-40
2023/12/25 06:07:39;;;;;;;0.60;0.60;;;;;;;8.49;100.00;96985.94;435218;1255;107464;-41
2023/12/25 06:17:46;;;;;;;2.40;0.60;;;;;;;8.54;100.00;96985.88;435300;1257;97878;-42
2023/12/25 06:27:54;;;;;;;0.70;0.60;;;;;;;8.64;100.00;97000.55;435105;1257;110884;-40
2023/12/25 06:38:07;;;;;;;1.60;1.50;;;;;;;8.68;100.00;96995.77;435271;1265;108434;-40
2023/12/25 06:48:15;;;;;;;0.80;0.50;;;;;;;8.74;100.00;97019.41;435119;1257;97873;-39
2023/12/25 06:58:22;;;;;;;3.10;0.80;;;;;;;8.75;100.00;97035.44;435190;1265;107644;-39
2023/12/25 07:08:29;;;;;;;0.50;0.50;;;;;;;8.68;100.00;97032.13;435250;1258;97884;-40
2023/12/25 07:18:36;;;;;;;1.60;0.80;;;;;;;8.66;100.00;97034.13;435177;1257;109515;-40
2023/12/25 07:28:44;;;;;;;3.50;1.10;;;;;;;8.69;100.00;97030.56;435187;1257;108001;-40
2023/12/25 07:38:51;;;;;;;1.20;1.00;;;;;;;8.71;100.00;97031.20;435317;1251;97890;-39
2023/12/25 07:48:57;;;;;;;1.80;1.50;;;;;;;8.75;100.00;97034.21;434843;1251;108553;-40
2023/12/25 07:59:05;;;;;;;2.20;1.20;;;;;;;8.85;100.00;97042.77;435086;1255;97967;-40
2023/12/25 08:09:12;;;;;;;1.60;0.80;;;;;;;8.88;100.00;97040.19;435312;1257;109799;-38
2023/12/25 08:19:19;;;;;;;9.00;3.20;;;;;;;8.93;100.00;97037.20;435152;1257;108365;-40
2023/12/25 08:29:26;;;;;;;3.60;1.40;;;;;;;9.01;100.00;97043.68;435172;1256;96652;-39
2023/12/25 08:39:33;;;;;;;4.50;2.10;;;;;;;9.17;100.00;97049.80;435323;1252;110638;-40
2023/12/25 08:49:39;;;;;;;4.30;1.30;;;;;;;9.30;100.00;97066.67;435424;1256;111479;-40
2023/12/25 08:59:49;;;;;;;1.70;0.60;;;;;;;9.32;99.96;97093.95;435277;1256;97901;-40
2023/12/25 09:20:03;;;;;;;4.80;1.90;;;;;;;9.38;99.99;97124.61;435071;1256;97958;-40
2023/12/25 09:30:12;;;;;;;3.20;1.40;;;;;;;9.32;100.00;97124.75;435320;1256;110424;-40
2023/12/25 09:40:18;;;;;;;3.90;2.10;;;;;;;9.30;100.00;97144.80;434959;1251;107288;-40
2023/12/25 09:50:24;;;;;;;5.30;2.40;;;;;;;9.15;100.00;97157.42;435436;1251;97233;-40
2023/12/25 10:00:31;;;;;;;2.50;1.40;;;;;;;9.06;100.00;97168.15;435173;1256;108820;-39
2023/12/25 10:10:38;;;;;;;1.70;0.90;;;;;;;9.03;100.00;97162.28;435265;1252;97907;-40
2023/12/25 10:20:43;;;;;;;10.20;4.30;;;;;;;9.03;100.00;97145.63;435386;1251;110286;-39
2023/12/25 10:41:24;;;;;;;3.90;2.30;;;;;;;9.02;100.00;97171.02;435329;1256;97890;-39
2023/12/25 11:01:44;;;;;;;8.50;2.80;;;;;;;8.74;100.00;97179.37;435210;1251;97896;-39
2023/12/25 11:11:53;;;;;;;3.20;1.20;;;;;;;8.65;100.00;97182.37;435300;1256;111355;-39
2023/12/25 11:22:00;;;;;;;6.60;3.90;;;;;;;8.62;100.00;97172.48;435109;1258;106789;-39
2023/12/25 11:42:19;;;;;;;2.80;1.40;;;;;;;8.50;100.00;97191.09;435228;1256;107390;-40
2023/12/25 12:02:59;;;;;;;2.20;1.70;;;;;;;8.57;100.00;97192.70;435303;1255;108803;-41
2023/12/25 12:13:06;;;;;;;7.00;2.90;;;;;;;8.60;100.00;97207.99;435220;1256;108161;-40
2023/12/25 12:23:15;;;;;;;8.70;4.30;;;;;;;8.71;100.00;97188.21;435289;1251;97474;-40
2023/12/25 12:33:20;;;;;;;;;;;;;;;8.90;100.00;97211.91;435142;1255;106811;-40
2023/12/25 12:53:34;;;;;;;23.00;8.60;;;;;;;9.13;100.00;97219.65;434875;1253;456386;-40
2023/12/25 13:13:48;;;;;;;9.50;3.20;;;;;;;9.07;100.00;97216.14;435074;1255;96652;-42
2023/12/25 13:23:56;;;;;;;4.60;1.80;;;;;;;9.08;100.00;97251.33;435076;1255;109277;-40
2023/12/25 13:34:03;;;;;;;9.40;3.30;;;;;;;9.06;100.00;97265.70;435251;1255;97865;-40
2023/12/25 13:44:11;;;;;;;3.90;1.70;;;;;;;9.05;100.00;97275.25;435291;1256;112153;-40
2023/12/25 13:54:20;;;;;;;8.00;2.20;;;;;;;9.04;100.00;97285.15;435225;1256;107500;-39
2023/12/25 14:04:28;;;;;;;3.30;1.80;;;;;;;9.03;100.00;97287.25;435201;1255;97893;-40
2023/12/25 14:34:47;;;;;;;8.60;4.60;;;;;;;8.95;100.00;97322.55;435103;1255;110687;-40
2023/12/25 14:44:54;;;;;;;11.10;7.80;;;;;;;8.94;100.00;97345.05;434999;1256;106941;-39
2023/12/25 14:55:02;;;;;;;5.70;3.10;;;;;;;8.93;100.00;97360.60;434944;1259;97936;-40
2023/12/25 15:05:09;;;;;;;14.60;8.40;;;;;;;8.86;100.00;97371.83;434972;1257;107794;-41
2023/12/25 15:15:15;;;;;;;11.50;2.70;;;;;;;8.83;100.00;97382.77;434969;1252;97979;-40
2023/12/25 15:25:20;;;;;;;17.70;5.00;;;;;;;8.87;100.00;97385.76;434928;1257;110898;-40
2023/12/25 15:35:27;;;;;;;24.30;8.80;;;;;;;8.89;99.64;97389.09;434994;1253;108017;-40
2023/12/25 15:45:33;;;;;;;15.10;6.80;;;;;;;8.83;99.61;97413.39;435099;1256;97884;-40
2023/12/25 15:55:40;;;;;;;11.80;5.70;;;;;;;8.71;99.21;97432.86;434995;1258;111613;-40
2023/12/25 16:05:47;;;;;;;20.30;10.20;;;;;;;8.61;98.89;97429.73;434925;1254;108925;-40
2023/12/25 16:15:55;;;;;;;14.80;6.30;;;;;;;8.42;98.88;97450.96;435034;1257;97911;-40
2023/12/25 16:26:01;;;;;;;10.30;5.00;;;;;;;8.36;98.94;97455.94;434844;1256;109527;-41
2023/12/25 16:36:09;;;;;;;15.90;6.80;;;;;;;8.35;99.19;97469.30;435037;1253;97881;-40
2023/12/25 16:46:16;;;;;;;12.80;3.90;;;;;;;8.30;98.61;97494.50;435011;1258;109666;-41
2023/12/25 17:06:28;;;;;;;21.90;10.80;;;;;;;8.27;98.45;97506.39;434872;1257;97175;-40
2023/12/25 17:16:35;;;;;;;22.60;11.10;;;;;;;8.28;98.59;97522.86;435075;1257;107912;-40
2023/12/25 17:26:42;;;;;;;7.80;4.30;;;;;;;8.30;98.40;97540.27;435077;1253;98629;-39
2023/12/25 17:46:57;;;;;;;7.20;4.20;;;;;;;8.38;98.46;97573.13;435484;1257;108389;-40
2023/12/25 17:57:04;;;;;;;10.70;4.70;;;;;;;8.50;98.58;97588.32;434987;1258;97866;-40
2023/12/25 18:17:18;;;;;;;13.00;7.60;;;;;;;8.56;98.49;97617.35;434883;1258;96680;-41
2023/12/25 18:27:24;;;;;;;7.10;3.40;;;;;;;8.55;98.47;97630.56;435022;1258;110497;-40
2023/12/25 18:37:30;;;;;;;12.80;5.80;;;;;;;8.55;98.52;97631.30;435099;1253;107881;-41
2023/12/25 18:47:37;;;;;;;7.10;4.10;;;;;;;8.53;98.52;97629.30;434869;1253;96649;-40
2023/12/25 18:57:44;;;;;;;9.80;5.20;;;;;;;8.45;98.58;97621.02;434866;1258;107698;-40
2023/12/25 19:07:50;;;;;;;9.10;3.50;;;;;;;8.44;98.29;97635.70;435037;1258;97910;-42
2023/12/25 19:28:03;;;;;;;11.60;5.50;;;;;;;8.44;98.36;97661.29;434672;1259;108372;-40
2023/12/25 19:48:16;;;;;;;14.70;6.80;;;;;;;8.36;98.39;97692.16;434870;1258;108416;-40
2023/12/25 19:58:22;;;;;;;21.40;12.30;;;;;;;8.36;98.25;97691.80;435051;1257;98054;-40
2023/12/25 20:08:29;;;;;;;9.00;5.50;;;;;;;8.36;98.13;97704.33;435125;1253;110325;-40
2023/12/25 20:18:37;;;;;;;7.70;4.50;;;;;;;8.29;98.19;97702.66;435013;1253;108182;-39
2023/12/25 20:28:44;;;;;;;6.60;4.20;;;;;;;8.17;98.12;97694.17;434972;1256;97900;-40
2023/12/25 20:38:51;;;;;;;14.10;6.30;;;;;;;8.14;97.91;97694.91;434981;1253;106994;-42
2023/12/25 20:59:07;;;;;;;5.50;3.80;;;;;;;7.99;98.03;97712.42;435137;1253;111854;-39
2023/12/25 21:09:14;;;;;;;4.20;2.50;;;;;;;7.89;97.93;97726.05;434930;1257;108840;-41
2023/12/25 21:19:21;;;;;;;2.80;1.80;;;;;;;7.96;97.80;97733.55;435048;1258;97882;-38
2023/12/25 22:09:56;;;;;;;8.80;2.80;;;;;;;7.95;98.07;97738.80;435013;1266;97948;-41
2023/12/25 22:20:03;;;;;;;8.40;2.90;;;;;;;7.98;98.26;97744.42;435236;1255;108012;-41
2023/12/25 22:30:11;;;;;;;13.80;5.90;;;;;;;7.98;98.29;97760.00;435025;1255;97896;-40
2023/12/25 22:40:18;;;;;;;28.70;10.60;;;;;;;7.98;98.38;97777.27;435049;1256;108867;-40
2023/12/25 23:10:39;;;;;;;11.80;6.60;;;;;;;7.85;98.84;97765.66;435063;1256;108253;-40
2023/12/25 23:20:55;;;;;;;6.80;3.30;;;;;;;7.80;98.90;97772.66;435194;1255;97870;-42
2023/12/25 23:41:07;;;;;;;1.80;1.10;;;;;;;7.61;99.35;97758.33;435089;1257;108251;-41
2023/12/25 23:51:15;;;;;;;6.50;3.00;;;;;;;7.59;99.37;97760.70;435029;1265;97912;-40
